• Join FlightAware (Why Join?)
  • Login
  • US Flag 
06:29PM EST


 

Airport Tracker/Info


-or-


 

Live Flight TrackerFlight Track Log ✈ N800WW ✈ 09-May-2013 ✈ KNYL - KTUS

Flight Track Log - Related Links

Times and Time Zones

All times are in EDT time to prevent confusion due to time zone crossing. See the N800WW flight status page for this flight to view local times or setup timezone preferences in your user account.

Time Position Orientation Groundspeed Altitude Reporting Facility
EDT Latitude Longitude Course Direction KTS MPH feet Rate Location/Type
10:28PM 32.6342 -114.6319 277° West 192 221 1,100  Level Los Angeles Center
10:28PM 32.6397 -114.6836 277° West 215 247 4,200 3,480 Climbing Los Angeles Center
10:29PM 32.6681 -114.6808 North 225 259 5,900 3,720 Climbing Los Angeles Center
10:29PM 32.6953 -114.6611 31° Northeast 235 270 8,000 3,720 Climbing Los Angeles Center
10:30PM 32.7208 -114.6381 37° Northeast 232 267 9,800 3,540 Climbing Los Angeles Center
10:30PM 32.7531 -114.6153 31° Northeast 243 280 11,600 2,700 Climbing Los Angeles Center
10:31PM 32.7686 -114.5881 56° Northeast 256 295 12,600 2,460 Climbing Los Angeles Center
10:31PM 32.7708 -114.5192 88° East 304 350 14,100 2,220 Climbing Los Angeles Center
10:32PM 32.7706 -114.4742 90° East 310 357 14,900 2,160 Climbing Los Angeles Center
10:32PM 32.7708 -114.4078 90° East 341 392 16,300 2,220 Climbing Los Angeles Center
10:33PM 32.7711 -114.3569 90° East 344 396 17,200 2,220 Climbing Los Angeles Center
10:33PM 32.7733 -114.2878 88° East 366 421 18,600 2,280 Climbing Los Angeles Center
10:34PM 32.7731 -114.2328 90° East 370 426 19,600 2,160 Climbing Los Angeles Center
10:35PM 32.7753 -114.0917 89° East 377 434 22,000 1,680 Climbing Albuquerque Center
10:36PM 32.7775 -113.9583 89° East 390 449 23,000 1,020 Climbing Albuquerque Center
10:37PM 32.7953 -113.8203 81° East 405 466 24,200 1,260 Climbing Albuquerque Center
10:38PM 32.8203 -113.6758 78° East 431 496 25,700 1,260 Climbing Albuquerque Center
10:39PM 32.8406 -113.5297 81° East 443 510 26,900 600 Climbing Albuquerque Center
10:40PM 32.8617 -113.3814 80° East 452 520 27,000  Climbing Albuquerque Center
10:41PM 32.8817 -113.2389 80° East 441 507 27,000  Level Albuquerque Center
10:42PM 32.9008 -113.0942 81° East 440 506 27,000  Level Albuquerque Center
10:43PM 32.9247 -112.9200 81° East 442 509 27,000 -300 Level Albuquerque Center
10:44PM 32.9439 -112.7758 81° East 440 506 26,500 -540 Descending Albuquerque Center
10:45PM 32.9397 -112.6381 92° East 425 489 25,900 -960 Descending Albuquerque Center
10:46PM 32.8964 -112.5169 113° Southeast 402 463 24,600 -1,320 Descending Albuquerque Center
10:47PM 32.8517 -112.3978 114° Southeast 394 453 23,300 -1,320 Descending Albuquerque Center
10:48PM 32.8036 -112.2756 115° Southeast 401 461 22,000 -1,380 Descending Albuquerque Center
10:49PM 32.7522 -112.1403 114° Southeast 406 467 20,500 -1,380 Descending Albuquerque Center
10:50PM 32.7050 -112.0189 115° Southeast 407 468 19,200 -1,320 Descending Albuquerque Center
10:51PM 32.6592 -111.9017 115° Southeast 400 460 17,900 -1,260 Descending Albuquerque Center
10:52PM 32.6150 -111.7944 116° Southeast 384 442 16,800 -1,200 Descending Albuquerque Center
10:53PM 32.5872 -111.7261 116° Southeast 363 418 16,100 -1,080 Descending Albuquerque Center
10:54PM 32.5742 -111.6858 111° Southeast 360 414 15,600 -1,200 Descending Albuquerque Center
10:54PM 32.5392 -111.6300 127° Southeast 350 403 14,900 -1,140 Descending Albuquerque Center
10:55PM 32.5206 -111.5936 121° Southeast 346 398 14,500 -1,200 Descending Albuquerque Center
10:55PM 32.4875 -111.5378 125° Southeast 340 391 13,700 -1,500 Descending Albuquerque Center
10:56PM 32.4542 -111.4864 128° Southeast 338 389 13,000 -1,200 Descending Albuquerque Center
10:56PM 32.4253 -111.4583 141° Southeast 329 379 12,500 -1,200 Descending Albuquerque Center
10:57PM 32.3925 -111.4150 132° Southeast 318 366 11,800 -1,200 Descending Albuquerque Center
10:57PM 32.3664 -111.3858 137° Southeast 310 357 11,300 -1,200 Descending Albuquerque Center
10:58PM 32.3356 -111.3464 133° Southeast 300 345 10,600 -1,200 Descending Albuquerque Center
10:58PM 32.3108 -111.3197 138° Southeast 288 331 10,100 -1,200 Descending Albuquerque Center
10:59PM 32.2806 -111.2831 134° Southeast 281 323 9,400 -1,200 Descending Albuquerque Center
10:59PM 32.2564 -111.2589 140° Southeast 274 315 8,900 -1,200 Descending Albuquerque Center
11:00PM 32.2269 -111.2222 134° Southeast 272 313 8,200 -1,320 Descending Albuquerque Center
11:00PM 32.1986 -111.1936 139° Southeast 268 308 7,600 -1,260 Descending Albuquerque Center
11:01PM 32.1733 -111.1644 136° Southeast 265 305 6,900 -1,380 Descending Albuquerque Center
11:01PM 32.1494 -111.1389 138° Southeast 250 288 6,200 -1,140 Descending Albuquerque Center
11:02PM 32.1269 -111.1056 129° Southeast 255 293 5,800 -720 Descending Albuquerque Center
11:02PM 32.1064 -111.0825 136° Southeast 230 265 5,500 -720 Descending Albuquerque Center
11:03PM 32.0875 -111.0506 125° Southeast 237 273 5,100 -720 Descending Albuquerque Center
11:03PM 32.0694 -111.0244 129° Southeast 222 255 4,800 -900 Descending Albuquerque Center
11:04PM 32.0483 -110.9789 119° Southeast 222 255 4,200 -600 Descending Albuquerque Center
11:04PM 32.0386 -110.9650 130° Southeast 216 249 4,200 -660 Level Albuquerque Center
11:05PM 32.0486 -110.9069 78° East 170 196 3,400 -600 Descending Albuquerque Center
11:06PM 32.0819 -110.9028 North 139 160 3,100 -300 Descending Albuquerque Center